Pagrindinis puslapis
METAR-TAF:

METAR-TAF

Oro uostai :

Mihailo Kogelničanu tarptautinis oro uostas

Konstanca, Rumunija

platuma: 44-20N, ilguma: 028-26E, Aukštis: 97 m

Dabartinis oras

Ataskaita buvo paskelbta 38 minutes, ne 22:30 UTC
Vėjas 13 kt iš Šiaurės/Šiaurės Rytų
Temperatūra 5°C
Drėgmė 56%
Slėgis 1028 hPa
Matomumas 10 km arba daugiau
nėra debesų žemiau 1500 m ir nėra kamuolinių lietaus debesų

METAR: LRCK 052230Z 02013KT CAVOK 05/M03 Q1028 NOSIG

Laikas: 02:08 (23:08 UTC)

Prognozė

Ataskaita buvo paskelbta 6 valandos ir 8 minutes, ne 17:00 UTC
Prognozė galioja nuo 05 metu 18 UTC su 06 metu 18 UTC
Vėjas 15 kt iš Rytų/Šiaurės Rytų
Matomumas 10 km arba daugiau
nėra debesų žemiau 1500 m ir nėra kamuolinių lietaus debesų
Laikinai
nuo 06 metu 08 UTC su 06 metu 12 UTC
Vėjas 25 kt iš Rytų/Šiaurės Rytų su gūsio iki 35 kt

TAF: LRCK 051700Z 0518/0618 06015KT CAVOK TEMPO 0608/0612 06025G35KT

Orai ataskaitas ir orų prognozės (METAR, TAF).

turimą stotys yra geltonos ir raudonos taškus žemėlapyje.

Perkelti pele per norėdami pamatyti stoties vardą.

Tada spustelėkite, norėdami matyti oro stebėjimo ir prognozės.

Norėdami pakeisti žemėlapį: spustelėkite ant žalios mygtukų su juodo kryžiaus žemyn,; žalią mygtuką su brūkšneliu, jei norite nutolinti; arba žalių rodyklių gretimoms žemėlapius.


METAR-TAF: